createdAt,value
2023-02-14T00:00:40.176Z,79.17
2023-02-14T00:03:25.463Z,79.17
2023-02-14T00:06:11.039Z,78.89
2023-02-14T00:08:55.212Z,78.98
2023-02-14T00:11:39.242Z,79.23
2023-02-14T00:14:40.780Z,79.35
2023-02-14T00:17:24.478Z,79.31
2023-02-14T00:20:10.833Z,78.02
2023-02-14T00:22:54.929Z,78.06
2023-02-14T00:25:38.684Z,78.60
2023-02-14T00:28:22.527Z,80.24
2023-02-14T00:31:06.536Z,79.26
2023-02-14T00:33:50.462Z,78.58
2023-02-14T00:36:36.066Z,78.92
2023-02-14T00:39:21.234Z,78.73
2023-02-14T00:42:05.184Z,78.71
2023-02-14T00:44:49.062Z,78.47
2023-02-14T00:47:33.101Z,78.13
2023-02-14T00:50:17.200Z,78.24
2023-02-14T00:53:02.859Z,77.88
2023-02-14T00:55:47.314Z,78.40
2023-02-14T00:58:32.601Z,77.94
2023-02-14T01:01:18.195Z,78.81
2023-02-14T01:04:02.195Z,78.50
2023-02-14T01:06:46.109Z,77.67
2023-02-14T01:09:31.927Z,78.33
2023-02-14T01:12:19.214Z,78.62
2023-02-14T01:15:03.246Z,78.34
2023-02-14T01:17:48.538Z,78.55
2023-02-14T01:20:32.393Z,79.33
2023-02-14T01:23:16.314Z,78.76
2023-02-14T01:26:05.918Z,78.56
2023-02-14T01:28:50.084Z,78.54
2023-02-14T01:31:35.763Z,78.19
2023-02-14T01:34:19.768Z,79.18
2023-02-14T01:37:04.035Z,80.77
2023-02-14T01:39:47.783Z,80.16
2023-02-14T01:42:34.909Z,79.69
2023-02-14T01:45:22.718Z,78.88
2023-02-14T01:48:06.580Z,79.26
2023-02-14T01:50:53.882Z,78.90
2023-02-14T01:53:38.604Z,79.03
2023-02-14T01:56:29.293Z,78.61
2023-02-14T01:59:19.395Z,78.89
2023-02-14T02:02:03.621Z,78.42
2023-02-14T02:04:48.155Z,78.22
2023-02-14T02:07:31.946Z,78.48
2023-02-14T02:10:15.727Z,78.58
2023-02-14T02:13:03.255Z,78.53
2023-02-14T02:15:57.366Z,78.57
2023-02-14T02:18:59.723Z,78.43
2023-02-14T02:22:05.710Z,78.31
2023-02-14T02:24:57.381Z,77.86
2023-02-14T02:28:17.613Z,78.67
2023-02-14T02:31:29.551Z,78.22
2023-02-14T02:34:36.701Z,78.72
2023-02-14T02:37:37.296Z,78.42
2023-02-14T02:40:35.186Z,78.30
2023-02-14T02:43:31.998Z,79.99
2023-02-14T02:46:40.836Z,79.39
2023-02-14T02:50:03.955Z,79.31
2023-02-14T02:53:07.206Z,79.66
2023-02-14T02:56:16.003Z,79.61
2023-02-14T02:59:06.987Z,79.32
2023-02-14T03:01:56.211Z,79.22
2023-02-14T03:04:54.791Z,79.18
2023-02-14T03:07:41.708Z,79.52
2023-02-14T03:10:31.653Z,79.47
2023-02-14T03:13:48.509Z,80.26
2023-02-14T03:16:36.613Z,79.62
2023-02-14T03:19:50.253Z,79.61
2023-02-14T03:22:44.733Z,79.98
2023-02-14T03:25:42.921Z,78.75
2023-02-14T03:28:35.018Z,79.26
2023-02-14T03:31:25.463Z,79.69
2023-02-14T03:34:15.590Z,79.03
2023-02-14T03:37:04.561Z,78.91
2023-02-14T03:39:59.305Z,79.77
2023-02-14T03:42:48.562Z,78.69
2023-02-14T03:45:36.950Z,79.49
2023-02-14T03:48:25.219Z,79.34
2023-02-14T03:51:10.886Z,79.93
2023-02-14T03:53:58.487Z,79.63
2023-02-14T03:56:46.867Z,81.69
2023-02-14T03:59:32.659Z,81.35
2023-02-14T04:02:21.459Z,81.24
2023-02-14T04:05:11.085Z,80.36
2023-02-14T04:07:57.364Z,81.84
2023-02-14T04:10:43.323Z,82.21
2023-02-14T04:13:27.747Z,82.60
2023-02-14T04:16:13.051Z,81.53
2023-02-14T04:19:14.462Z,83.22
2023-02-14T04:21:58.237Z,83.79
2023-02-14T04:24:42.170Z,82.67
2023-02-14T04:27:25.994Z,81.80
2023-02-14T04:30:12.613Z,81.20
2023-02-14T04:32:58.032Z,82.01
2023-02-14T04:35:41.906Z,80.86
2023-02-14T04:38:25.618Z,80.45
2023-02-14T04:41:09.406Z,80.51
2023-02-14T04:43:53.241Z,79.16
2023-02-14T04:46:37.060Z,78.76
2023-02-14T04:49:22.381Z,80.04
2023-02-14T04:52:07.477Z,79.60
2023-02-14T04:54:51.305Z,79.18
2023-02-14T04:57:35.143Z,78.88
2023-02-14T05:00:20.109Z,78.97
2023-02-14T05:03:04.061Z,79.11
2023-02-14T05:05:49.334Z,78.33
2023-02-14T05:08:33.175Z,79.86
2023-02-14T05:11:17.110Z,79.63
2023-02-14T05:14:01.060Z,80.24
2023-02-14T05:16:45.134Z,80.83
2023-02-14T05:19:29.159Z,81.38
2023-02-14T05:22:15.388Z,79.96
2023-02-14T05:25:00.618Z,79.66
2023-02-14T05:27:44.421Z,80.05
2023-02-14T05:30:29.015Z,79.20
2023-02-14T05:33:13.256Z,79.33
2023-02-14T05:35:59.674Z,79.69
2023-02-14T05:38:44.852Z,79.16
2023-02-14T05:41:28.843Z,78.57
2023-02-14T05:44:12.711Z,79.18
2023-02-14T05:46:56.733Z,78.71
2023-02-14T05:49:40.555Z,80.28
2023-02-14T05:52:24.483Z,78.74
2023-02-14T05:55:10.687Z,78.50
2023-02-14T05:57:54.651Z,78.50
2023-02-14T06:00:41.505Z,78.39
2023-02-14T06:03:25.588Z,77.30
2023-02-14T06:06:09.454Z,76.89
2023-02-14T06:08:53.300Z,77.53
2023-02-14T06:11:38.578Z,76.77
2023-02-14T06:14:22.355Z,76.58
2023-02-14T06:17:06.155Z,75.93
2023-02-14T06:19:50.093Z,74.97
2023-02-14T06:22:34.018Z,74.51
2023-02-14T06:25:18.561Z,74.42
2023-02-14T06:28:03.835Z,73.57
2023-02-14T06:30:48.038Z,74.08
2023-02-14T06:33:31.969Z,73.09
2023-02-14T06:36:16.445Z,72.42
2023-02-14T06:39:00.481Z,72.67
2023-02-14T06:41:44.306Z,72.48
2023-02-14T06:44:29.588Z,72.15
2023-02-14T06:47:13.341Z,72.06
2023-02-14T06:49:57.130Z,71.90
2023-02-14T06:52:42.180Z,72.14
2023-02-14T06:55:26.251Z,72.25
2023-02-14T06:58:10.218Z,72.16
2023-02-14T07:00:57.612Z,71.85
2023-02-14T07:03:41.631Z,71.71
2023-02-14T07:06:25.711Z,69.91
2023-02-14T07:09:09.491Z,70.40
2023-02-14T07:11:53.312Z,70.24
2023-02-14T07:14:37.173Z,70.84
2023-02-14T07:17:22.446Z,70.69
2023-02-14T07:20:11.211Z,69.82
2023-02-14T07:22:55.575Z,69.94
2023-02-14T07:25:40.771Z,70.68
2023-02-14T07:28:24.571Z,69.54
2023-02-14T07:31:08.484Z,70.76
2023-02-14T07:33:53.835Z,70.40
2023-02-14T07:36:38.845Z,69.88
2023-02-14T07:39:22.948Z,68.96
2023-02-14T07:42:08.344Z,69.24
2023-02-14T07:44:52.496Z,68.80
2023-02-14T07:47:36.420Z,69.39
2023-02-14T07:50:23.650Z,68.89
2023-02-14T07:53:08.713Z,68.38
2023-02-14T07:55:53.235Z,68.85
2023-02-14T07:58:37.291Z,68.69
2023-02-14T08:01:21.693Z,68.26
2023-02-14T08:04:05.952Z,67.32
2023-02-14T08:06:51.023Z,66.83
2023-02-14T08:09:34.942Z,67.15
2023-02-14T08:12:35.847Z,67.10
2023-02-14T08:15:37.464Z,65.76
2023-02-14T08:18:23.222Z,65.91
2023-02-14T08:21:09.020Z,66.10
2023-02-14T08:23:54.392Z,65.66
2023-02-14T08:26:38.591Z,65.74
2023-02-14T08:29:22.603Z,64.92
2023-02-14T08:32:06.786Z,64.69
2023-02-14T08:34:50.731Z,64.45
2023-02-14T08:37:34.655Z,64.70
2023-02-14T08:40:20.663Z,63.95
2023-02-14T08:43:05.016Z,63.96
2023-02-14T08:45:50.630Z,62.38
2023-02-14T08:48:39.051Z,62.29
2023-02-14T08:51:23.991Z,61.91
2023-02-14T08:54:07.967Z,62.92
2023-02-14T08:56:53.183Z,61.48
2023-02-14T08:59:37.044Z,61.05
2023-02-14T09:02:21.050Z,60.67
2023-02-14T09:05:06.295Z,60.57
2023-02-14T09:07:50.282Z,60.49
2023-02-14T09:10:34.059Z,60.14
2023-02-14T09:13:19.280Z,59.81
2023-02-14T09:16:05.570Z,58.07
2023-02-14T09:18:50.884Z,58.30
2023-02-14T09:21:35.227Z,57.41
2023-02-14T09:24:19.140Z,56.91
2023-02-14T09:27:02.988Z,58.02
2023-02-14T09:29:48.238Z,56.09
2023-02-14T09:32:32.017Z,57.39
2023-02-14T09:35:16.725Z,55.81
2023-02-14T09:38:19.318Z,55.74
2023-02-14T09:41:08.071Z,55.28
2023-02-14T09:43:59.795Z,53.64
2023-02-14T09:46:49.789Z,54.76
2023-02-14T09:49:37.552Z,54.87
2023-02-14T09:52:23.875Z,54.38
2023-02-14T09:55:15.284Z,55.15
2023-02-14T09:58:07.374Z,54.68
2023-02-14T10:00:58.731Z,54.89
2023-02-14T10:04:09.808Z,55.01
2023-02-14T10:06:58.705Z,54.78
2023-02-14T10:09:53.749Z,54.63
2023-02-14T10:12:41.481Z,54.37
2023-02-14T10:15:28.880Z,52.42
2023-02-14T10:18:20.052Z,53.04
2023-02-14T10:21:08.848Z,51.38
2023-02-14T10:23:59.220Z,51.32
2023-02-14T10:26:44.617Z,48.76
2023-02-14T10:29:28.525Z,49.32
2023-02-14T10:32:16.923Z,49.74
2023-02-14T10:35:07.075Z,49.03
2023-02-14T10:38:02.520Z,48.24
2023-02-14T10:41:02.463Z,47.69
2023-02-14T10:43:55.148Z,47.59
2023-02-14T10:46:46.075Z,48.17
2023-02-14T10:49:44.076Z,48.36
2023-02-14T10:52:34.474Z,47.26
2023-02-14T10:55:32.473Z,46.58
2023-02-14T10:58:20.966Z,46.83
2023-02-14T11:01:08.587Z,47.29
2023-02-14T11:03:56.204Z,47.26
2023-02-14T11:06:40.173Z,46.91
2023-02-14T11:09:24.035Z,47.71
2023-02-14T11:12:10.356Z,47.63
2023-02-14T11:15:10.205Z,47.91
2023-02-14T11:18:11.085Z,47.65
2023-02-14T11:21:03.346Z,48.43
2023-02-14T11:23:48.807Z,48.96
2023-02-14T11:26:35.985Z,48.51
2023-02-14T11:29:28.573Z,49.83
2023-02-14T11:32:16.926Z,49.07
2023-02-14T11:35:02.880Z,49.25
2023-02-14T11:37:53.567Z,48.97
2023-02-14T11:40:39.815Z,48.87
2023-02-14T11:43:33.494Z,48.47
2023-02-14T11:46:28.105Z,48.56
2023-02-14T11:49:28.331Z,48.46
2023-02-14T11:52:17.431Z,48.48
2023-02-14T11:55:02.421Z,48.35
2023-02-14T11:57:47.756Z,48.13
2023-02-14T12:00:32.235Z,47.84
2023-02-14T12:03:20.769Z,48.71
2023-02-14T12:06:04.752Z,48.03
2023-02-14T12:08:48.660Z,47.32
2023-02-14T12:11:33.214Z,47.23
2023-02-14T12:14:23.459Z,47.68
2023-02-14T12:17:20.034Z,47.32
2023-02-14T12:20:13.402Z,46.93
2023-02-14T12:23:03.603Z,48.30
2023-02-14T12:25:54.092Z,47.54
2023-02-14T12:28:42.308Z,45.93
2023-02-14T12:31:26.703Z,46.92
2023-02-14T12:34:13.028Z,46.73
2023-02-14T12:37:13.420Z,46.63
2023-02-14T12:40:21.958Z,46.84
2023-02-14T12:43:23.439Z,46.39
2023-02-14T12:46:22.885Z,46.46
2023-02-14T12:49:23.228Z,45.79
2023-02-14T12:52:24.123Z,44.65
2023-02-14T12:55:28.548Z,44.84
2023-02-14T12:58:23.967Z,44.42
2023-02-14T13:01:38.732Z,45.22
2023-02-14T13:04:41.056Z,43.10
2023-02-14T13:07:44.839Z,45.09
2023-02-14T13:10:46.654Z,44.43
2023-02-14T13:13:42.541Z,44.82
2023-02-14T13:16:35.417Z,45.77
2023-02-14T13:19:34.913Z,45.04
2023-02-14T13:22:21.823Z,46.06
2023-02-14T13:25:14.784Z,45.15
2023-02-14T13:27:59.611Z,46.18
2023-02-14T13:30:43.437Z,44.84
2023-02-14T13:33:34.749Z,45.73
2023-02-14T13:36:20.044Z,45.08
2023-02-14T13:39:05.484Z,44.60
2023-02-14T13:41:50.931Z,44.28
2023-02-14T13:44:44.302Z,45.44
2023-02-14T13:47:28.556Z,46.14
2023-02-14T13:50:22.170Z,47.02
2023-02-14T13:53:06.076Z,47.77
2023-02-14T13:55:55.928Z,47.45
2023-02-14T13:58:48.405Z,48.44
2023-02-14T14:01:39.083Z,48.73
2023-02-14T14:04:37.380Z,48.07
2023-02-14T14:07:24.441Z,47.93
2023-02-14T14:10:13.059Z,48.43
2023-02-14T14:12:57.909Z,48.45
2023-02-14T14:16:21.340Z,47.58
2023-02-14T14:19:11.741Z,47.82
2023-02-14T14:22:03.293Z,48.75
2023-02-14T14:24:54.817Z,49.25
2023-02-14T14:27:45.359Z,49.29
2023-02-14T14:30:33.570Z,49.77
2023-02-14T14:33:28.059Z,49.75
2023-02-14T14:36:23.210Z,50.39
2023-02-14T14:39:07.008Z,50.11
2023-02-14T14:41:51.005Z,49.68
2023-02-14T14:44:36.716Z,49.29
2023-02-14T14:47:24.529Z,49.87
2023-02-14T14:50:17.453Z,51.22
2023-02-14T14:53:04.265Z,50.47
2023-02-14T14:55:52.081Z,50.23
2023-02-14T14:58:38.694Z,50.47
2023-02-14T15:01:34.496Z,50.68
2023-02-14T15:04:20.874Z,50.39
2023-02-14T15:07:21.068Z,50.21
2023-02-14T15:10:05.492Z,51.22
2023-02-14T15:13:07.069Z,51.16
2023-02-14T15:15:52.835Z,51.44
2023-02-14T15:18:36.912Z,51.38
2023-02-14T15:21:21.396Z,52.13
2023-02-14T15:24:14.612Z,52.40
2023-02-14T15:26:58.957Z,53.10
2023-02-14T15:29:42.965Z,52.99
2023-02-14T15:32:29.375Z,52.72
2023-02-14T15:35:16.242Z,52.80
2023-02-14T15:38:03.817Z,53.90
2023-02-14T15:40:49.220Z,55.14
2023-02-14T15:43:34.703Z,54.61
2023-02-14T15:46:27.615Z,55.08
2023-02-14T15:49:16.930Z,55.21
2023-02-14T15:52:04.140Z,56.67
2023-02-14T15:54:49.024Z,57.89
2023-02-14T15:57:35.342Z,57.56
2023-02-14T16:00:22.341Z,58.45
2023-02-14T16:03:09.544Z,58.50
2023-02-14T16:05:54.825Z,58.57
2023-02-14T16:08:41.760Z,59.43
2023-02-14T16:11:31.391Z,59.68
2023-02-14T16:14:31.352Z,59.82
2023-02-14T16:17:34.435Z,60.21
2023-02-14T16:20:25.224Z,60.05
2023-02-14T16:23:19.658Z,59.88
2023-02-14T16:26:03.616Z,60.65
2023-02-14T16:28:47.466Z,61.21
2023-02-14T16:31:33.480Z,61.06
2023-02-14T16:34:17.837Z,61.21
2023-02-14T16:37:08.625Z,61.34
2023-02-14T16:39:56.731Z,60.60
2023-02-14T16:42:41.115Z,61.32
2023-02-14T16:45:25.109Z,60.85
2023-02-14T16:48:10.768Z,61.19
2023-02-14T16:50:54.789Z,60.89
2023-02-14T16:53:38.670Z,61.25
2023-02-14T16:56:26.834Z,61.40
2023-02-14T16:59:11.773Z,61.82
2023-02-14T17:01:55.563Z,61.94
2023-02-14T17:04:41.021Z,61.55
2023-02-14T17:07:25.058Z,61.85
2023-02-14T17:10:17.570Z,62.05
2023-02-14T17:13:03.546Z,61.54
2023-02-14T17:15:47.524Z,61.49
2023-02-14T17:18:33.207Z,61.52
2023-02-14T17:21:22.173Z,61.35
2023-02-14T17:24:06.098Z,61.79
2023-02-14T17:26:49.896Z,61.70
2023-02-14T17:29:33.682Z,62.33
2023-02-14T17:32:17.598Z,62.20
2023-02-14T17:35:03.584Z,62.23
2023-02-14T17:37:49.520Z,62.56
2023-02-14T17:40:33.465Z,62.64
2023-02-14T17:43:17.278Z,62.04
2023-02-14T17:46:01.033Z,62.21
2023-02-14T17:48:45.713Z,63.24
2023-02-14T17:51:30.006Z,63.44
2023-02-14T17:54:15.248Z,63.63
2023-02-14T17:56:58.908Z,63.32
2023-02-14T17:59:45.449Z,62.86
2023-02-14T18:02:29.622Z,62.46
2023-02-14T18:05:13.465Z,62.48
2023-02-14T18:07:57.906Z,62.57
2023-02-14T18:10:43.074Z,62.45
2023-02-14T18:13:27.074Z,63.31
2023-02-14T18:16:12.628Z,62.50
2023-02-14T18:18:56.529Z,62.66
2023-02-14T18:21:41.077Z,61.91
2023-02-14T18:24:24.937Z,61.70
2023-02-14T18:27:10.609Z,62.80
2023-02-14T18:29:54.602Z,62.02
2023-02-14T18:32:38.404Z,62.30
2023-02-14T18:35:22.258Z,61.39
2023-02-14T18:38:06.588Z,61.95
2023-02-14T18:40:51.654Z,61.80
2023-02-14T18:43:37.908Z,62.44
2023-02-14T18:46:23.805Z,62.68
2023-02-14T18:49:08.747Z,63.14
2023-02-14T18:51:52.505Z,63.49
2023-02-14T18:54:36.483Z,64.36
2023-02-14T18:57:20.340Z,63.29
2023-02-14T19:00:12.143Z,63.69
2023-02-14T19:02:56.242Z,64.29
2023-02-14T19:05:40.070Z,64.17
2023-02-14T19:08:23.875Z,64.88
2023-02-14T19:11:12.630Z,65.12
2023-02-14T19:13:58.336Z,63.93
2023-02-14T19:16:50.511Z,63.51
2023-02-14T19:19:36.058Z,64.10
2023-02-14T19:22:20.112Z,63.28
2023-02-14T19:25:03.856Z,63.27
2023-02-14T19:27:48.181Z,62.96
2023-02-14T19:30:31.941Z,62.67
2023-02-14T19:33:17.383Z,63.23
2023-02-14T19:36:02.335Z,63.26
2023-02-14T19:38:48.162Z,63.15
2023-02-14T19:41:34.657Z,63.46
2023-02-14T19:44:20.192Z,63.08
2023-02-14T19:47:15.686Z,62.88
2023-02-14T19:50:10.814Z,63.17
2023-02-14T19:52:54.877Z,63.01
2023-02-14T19:55:40.446Z,63.49
2023-02-14T19:58:26.114Z,63.13
2023-02-14T20:01:21.745Z,62.92
2023-02-14T20:04:07.592Z,63.53
2023-02-14T20:06:54.220Z,63.77
2023-02-14T20:09:38.873Z,64.26
2023-02-14T20:12:22.938Z,63.71
2023-02-14T20:15:10.623Z,64.08
2023-02-14T20:17:54.764Z,64.08
2023-02-14T20:20:52.523Z,64.16
2023-02-14T20:23:38.030Z,65.22
2023-02-14T20:26:23.351Z,65.07
2023-02-14T20:29:09.823Z,65.16
2023-02-14T20:31:55.927Z,65.32
2023-02-14T20:34:40.441Z,65.54
2023-02-14T20:37:24.507Z,65.62
2023-02-14T20:40:12.465Z,65.41
2023-02-14T20:42:56.460Z,65.66
2023-02-14T20:45:40.412Z,65.87
2023-02-14T20:48:24.333Z,65.72
2023-02-14T20:51:13.123Z,65.06
2023-02-14T20:53:57.074Z,65.64
2023-02-14T20:56:42.542Z,65.48
2023-02-14T20:59:28.759Z,65.31
2023-02-14T21:02:13.082Z,64.77
2023-02-14T21:05:00.289Z,65.50
2023-02-14T21:07:44.095Z,64.53
2023-02-14T21:10:28.322Z,65.53
2023-02-14T21:13:13.563Z,64.90
2023-02-14T21:16:02.873Z,65.19
2023-02-14T21:18:52.475Z,65.03
2023-02-14T21:21:38.183Z,64.66
2023-02-14T21:24:21.991Z,64.68
2023-02-14T21:27:06.251Z,64.85
2023-02-14T21:29:51.933Z,65.16
2023-02-14T21:32:35.676Z,64.78
2023-02-14T21:35:19.904Z,64.84
2023-02-14T21:38:03.969Z,64.92
2023-02-14T21:40:48.180Z,65.70
2023-02-14T21:43:34.480Z,65.69
2023-02-14T21:46:24.657Z,64.88
2023-02-14T21:49:26.275Z,64.51
2023-02-14T21:52:10.234Z,64.74
2023-02-14T21:54:54.239Z,65.33
2023-02-14T21:57:38.199Z,65.31
2023-02-14T22:00:23.646Z,65.84
2023-02-14T22:03:09.439Z,65.85
2023-02-14T22:05:54.418Z,66.38
2023-02-14T22:08:38.476Z,65.97
2023-02-14T22:11:23.028Z,66.54
2023-02-14T22:14:07.191Z,65.68
2023-02-14T22:16:51.248Z,66.58
2023-02-14T22:19:37.322Z,66.86
2023-02-14T22:22:21.915Z,67.03
2023-02-14T22:25:06.300Z,66.93
2023-02-14T22:27:50.275Z,66.79
2023-02-14T22:30:34.285Z,66.88
2023-02-14T22:33:18.273Z,66.97
2023-02-14T22:36:04.114Z,66.51
2023-02-14T22:38:48.237Z,66.64
2023-02-14T22:41:33.187Z,67.04
2023-02-14T22:44:17.110Z,67.12
2023-02-14T22:47:01.396Z,66.29
2023-02-14T22:49:45.399Z,66.40
2023-02-14T22:52:30.792Z,66.57
2023-02-14T22:55:14.698Z,66.27
2023-02-14T22:57:58.850Z,66.39
2023-02-14T23:00:42.764Z,65.71
2023-02-14T23:03:26.765Z,65.73
2023-02-14T23:06:11.524Z,65.86
2023-02-14T23:08:57.895Z,65.49
2023-02-14T23:11:44.050Z,65.31
2023-02-14T23:14:45.631Z,64.39
2023-02-14T23:17:46.505Z,64.64
2023-02-14T23:20:48.439Z,64.19
2023-02-14T23:23:32.589Z,63.99
2023-02-14T23:26:21.657Z,62.96
2023-02-14T23:29:05.701Z,63.69
2023-02-14T23:31:49.875Z,64.16
2023-02-14T23:34:36.323Z,63.15
2023-02-14T23:37:20.432Z,62.88
2023-02-14T23:40:04.669Z,63.30
2023-02-14T23:42:50.407Z,62.74
2023-02-14T23:45:38.720Z,64.17
2023-02-14T23:48:22.638Z,63.49
2023-02-14T23:51:06.480Z,63.34
2023-02-14T23:53:50.461Z,63.96
2023-02-14T23:56:35.004Z,64.64
2023-02-14T23:59:21.534Z,64.04
